createdAt,value
2019-04-16T00:00:17.711Z,10.20
2019-04-16T00:02:48.549Z,10.20
2019-04-16T00:05:27.525Z,10.20
2019-04-16T00:08:19.324Z,10.20
2019-04-16T00:10:56.018Z,10.20
2019-04-16T00:13:26.506Z,10.30
2019-04-16T00:15:55.445Z,10.30
2019-04-16T00:23:40.361Z,10.20
2019-04-16T00:28:37.848Z,10.10
2019-04-16T00:31:06.781Z,10.20
2019-04-16T00:33:35.542Z,10.20
2019-04-16T00:36:04.478Z,10.20
2019-04-16T00:38:40.722Z,10.20
2019-04-16T00:43:32.399Z,10.10
2019-04-16T00:48:29.708Z,10.10
2019-04-16T00:53:27.076Z,10.10
2019-04-16T00:55:55.874Z,10.10
2019-04-16T00:58:24.810Z,10.00
2019-04-16T01:00:53.613Z,10.00
2019-04-16T01:05:50.911Z,10.00
2019-04-16T01:13:16.608Z,9.80
2019-04-16T01:23:17.564Z,9.50
2019-04-16T01:25:43.308Z,9.50
2019-04-16T01:30:46.580Z,9.50
2019-04-16T01:33:19.934Z,9.40
2019-04-16T01:38:44.410Z,9.40
2019-04-16T01:41:15.063Z,9.40
2019-04-16T01:43:43.890Z,9.30
2019-04-16T01:46:12.762Z,9.30
2019-04-16T01:48:41.590Z,9.30
2019-04-16T01:51:14.979Z,9.20
2019-04-16T01:53:40.940Z,9.10
2019-04-16T01:56:09.792Z,9.10
2019-04-16T01:58:39.414Z,9.10
2019-04-16T02:01:11.217Z,9.10
2019-04-16T02:03:38.713Z,9.10
2019-04-16T02:06:07.509Z,9.00
2019-04-16T02:08:36.272Z,9.00
2019-04-16T02:16:03.967Z,8.90
2019-04-16T02:18:32.775Z,8.90
2019-04-16T02:21:01.834Z,8.90
2019-04-16T02:23:30.674Z,8.80
2019-04-16T02:28:28.958Z,8.80
2019-04-16T02:30:58.331Z,8.70
2019-04-16T02:33:27.168Z,8.70
2019-04-16T02:35:56.013Z,8.70
2019-04-16T02:38:24.862Z,8.70
2019-04-16T02:43:22.388Z,8.60
2019-04-16T02:45:56.681Z,8.60
2019-04-16T02:51:05.518Z,8.50
2019-04-16T02:53:48.753Z,8.50
2019-04-16T02:56:30.743Z,8.40
2019-04-16T02:59:09.623Z,8.40
2019-04-16T03:01:36.393Z,8.40
2019-04-16T03:04:06.803Z,8.40
2019-04-16T03:06:35.668Z,8.30
2019-04-16T03:09:09.140Z,8.30
2019-04-16T03:11:36.735Z,8.30
2019-04-16T03:14:05.530Z,8.30
2019-04-16T03:24:17.102Z,8.10
2019-04-16T03:26:47.594Z,8.10
2019-04-16T03:36:41.750Z,8.00
2019-04-16T03:39:13.583Z,8.00
2019-04-16T03:44:09.835Z,8.00
2019-04-16T03:49:08.786Z,8.00
2019-04-16T03:54:06.280Z,8.00
2019-04-16T03:56:35.051Z,7.90
2019-04-16T03:59:04.055Z,7.90
2019-04-16T04:01:32.880Z,7.90
2019-04-16T04:04:01.821Z,7.90
2019-04-16T04:06:30.636Z,7.80
2019-04-16T04:08:59.432Z,7.80
2019-04-16T04:13:56.725Z,7.80
2019-04-16T04:16:25.560Z,7.80
2019-04-16T04:18:54.420Z,7.80
2019-04-16T04:21:23.242Z,7.80
2019-04-16T04:23:52.053Z,7.80
2019-04-16T04:26:20.816Z,7.70
2019-04-16T04:28:51.586Z,7.70
2019-04-16T04:31:20.149Z,7.70
2019-04-16T04:33:48.978Z,7.70
2019-04-16T04:38:47.931Z,7.70
2019-04-16T04:41:16.742Z,7.70
2019-04-16T04:43:45.501Z,7.70
2019-04-16T04:46:15.202Z,7.70
2019-04-16T04:51:12.987Z,7.70
2019-04-16T04:53:41.813Z,7.90
2019-04-16T04:56:10.608Z,8.00
2019-04-16T04:58:39.444Z,8.00
2019-04-16T05:01:09.550Z,8.00
2019-04-16T05:03:40.658Z,8.10
2019-04-16T05:06:11.145Z,8.10
2019-04-16T05:08:39.896Z,8.20
2019-04-16T05:11:08.685Z,8.20
2019-04-16T05:13:37.459Z,8.30
2019-04-16T05:16:07.094Z,8.20
2019-04-16T05:18:38.282Z,8.30
2019-04-16T05:23:37.613Z,8.20
2019-04-16T05:26:05.669Z,8.30
2019-04-16T05:28:34.512Z,8.40
2019-04-16T05:31:03.364Z,8.60
2019-04-16T05:36:02.301Z,8.80
2019-04-16T05:38:31.058Z,8.90
2019-04-16T05:41:12.414Z,8.90
2019-04-16T05:48:28.224Z,9.00
2019-04-16T05:50:59.770Z,9.10
2019-04-16T05:53:27.797Z,9.20
2019-04-16T05:55:58.226Z,9.30
2019-04-16T06:01:01.824Z,9.50
2019-04-16T06:03:30.593Z,9.60
2019-04-16T06:05:59.944Z,9.70
2019-04-16T06:08:28.829Z,9.70
2019-04-16T06:10:57.812Z,9.80
2019-04-16T06:13:28.714Z,9.90
2019-04-16T06:16:01.876Z,9.90
2019-04-16T06:18:37.993Z,10.10
2019-04-16T06:23:56.390Z,10.20
2019-04-16T06:26:32.985Z,10.20
2019-04-16T06:29:18.285Z,10.30
2019-04-16T06:31:48.848Z,10.30
2019-04-16T06:34:28.055Z,10.40
2019-04-16T06:42:25.947Z,10.60
2019-04-16T06:44:56.644Z,10.80
2019-04-16T06:47:42.823Z,10.90
2019-04-16T06:50:32.160Z,11.00
2019-04-16T06:53:07.064Z,11.20
2019-04-16T06:58:18.821Z,11.40
2019-04-16T07:01:06.820Z,11.50
2019-04-16T07:03:39.264Z,11.60
2019-04-16T07:06:18.565Z,11.60
2019-04-16T07:11:27.577Z,11.60
2019-04-16T07:13:56.335Z,11.70
2019-04-16T07:16:27.932Z,11.70
2019-04-16T07:18:55.691Z,11.80
2019-04-16T07:21:24.517Z,11.80
2019-04-16T07:23:56.824Z,11.90
2019-04-16T07:26:23.859Z,11.90
2019-04-16T07:29:03.052Z,12.00
2019-04-16T07:31:34.522Z,12.10
2019-04-16T07:34:05.449Z,12.20
2019-04-16T07:39:14.845Z,12.40
2019-04-16T07:41:50.531Z,12.40
2019-04-16T07:44:21.024Z,12.40
2019-04-16T07:47:06.278Z,12.50
2019-04-16T07:49:42.516Z,12.60
2019-04-16T07:52:28.987Z,12.70
2019-04-16T07:55:16.275Z,12.80
2019-04-16T07:57:45.165Z,12.90
2019-04-16T08:02:43.618Z,13.00
2019-04-16T08:05:12.552Z,13.10
2019-04-16T08:07:41.145Z,13.20
2019-04-16T08:10:10.145Z,13.20
2019-04-16T08:12:42.280Z,13.40
2019-04-16T08:15:14.173Z,13.40
2019-04-16T08:17:41.800Z,13.50
2019-04-16T08:20:10.629Z,13.50
2019-04-16T08:22:40.110Z,13.60
2019-04-16T08:25:09.018Z,13.70
2019-04-16T08:27:37.582Z,13.70
2019-04-16T08:30:09.035Z,13.80
2019-04-16T08:32:37.546Z,13.90
2019-04-16T08:35:07.361Z,13.90
2019-04-16T08:37:48.403Z,13.90
2019-04-16T08:40:08.794Z,14.00
2019-04-16T08:42:44.310Z,14.10
2019-04-16T08:45:08.689Z,14.30
2019-04-16T08:47:37.474Z,14.40
2019-04-16T08:50:06.168Z,14.50
2019-04-16T08:52:34.832Z,14.50
2019-04-16T08:55:03.497Z,14.70
2019-04-16T08:57:32.798Z,14.70
2019-04-16T09:00:01.444Z,14.70
2019-04-16T09:02:30.021Z,14.70
2019-04-16T09:04:58.809Z,14.80
2019-04-16T09:07:39.752Z,14.80
2019-04-16T09:10:20.294Z,14.90
2019-04-16T09:13:02.049Z,15.00
2019-04-16T09:15:27.940Z,15.10
2019-04-16T09:17:58.310Z,15.20
2019-04-16T09:20:28.492Z,15.30
2019-04-16T09:22:59.147Z,15.40
2019-04-16T09:25:38.154Z,15.50
2019-04-16T09:28:23.822Z,15.60
2019-04-16T09:30:46.732Z,15.70
2019-04-16T09:33:26.698Z,15.70
2019-04-16T09:36:05.748Z,15.80
2019-04-16T09:38:45.134Z,15.80
2019-04-16T09:41:22.505Z,15.90
2019-04-16T09:43:53.642Z,16.20
2019-04-16T09:46:48.091Z,16.20
2019-04-16T09:48:53.230Z,16.30
2019-04-16T09:51:25.023Z,16.30
2019-04-16T09:53:52.190Z,16.40
2019-04-16T09:56:28.960Z,16.50
2019-04-16T09:59:17.158Z,16.50
2019-04-16T10:01:47.428Z,16.70
2019-04-16T10:04:17.688Z,16.70
2019-04-16T10:06:46.267Z,16.80
2019-04-16T10:09:20.042Z,16.90
2019-04-16T10:11:45.240Z,16.90
2019-04-16T10:16:42.216Z,17.00
2019-04-16T10:19:10.800Z,17.10
2019-04-16T10:21:39.389Z,17.30
2019-04-16T10:24:15.502Z,17.50
2019-04-16T10:29:18.341Z,17.70
2019-04-16T10:31:47.149Z,17.80
2019-04-16T10:34:15.774Z,17.90
2019-04-16T10:36:44.507Z,17.90
2019-04-16T10:39:32.983Z,17.90
2019-04-16T10:42:12.207Z,18.00
2019-04-16T10:44:57.563Z,18.10
2019-04-16T10:47:40.051Z,18.20
2019-04-16T10:50:16.265Z,18.30
2019-04-16T10:52:55.416Z,15.40
2019-04-16T10:55:24.986Z,18.50
2019-04-16T10:58:11.715Z,18.70
2019-04-16T11:00:48.069Z,18.70
2019-04-16T11:03:18.419Z,18.80
2019-04-16T11:05:51.190Z,18.90
2019-04-16T11:08:19.860Z,19.00
2019-04-16T11:10:48.420Z,19.10
2019-04-16T11:13:24.422Z,19.20
2019-04-16T11:15:53.216Z,19.40
2019-04-16T11:18:21.794Z,19.50
2019-04-16T11:20:50.373Z,19.70
2019-04-16T11:23:19.048Z,19.80
2019-04-16T11:25:47.611Z,20.00
2019-04-16T11:28:17.150Z,20.10
2019-04-16T11:30:50.143Z,20.30
2019-04-16T11:33:18.928Z,20.40
2019-04-16T11:35:50.260Z,21.90
2019-04-16T11:38:17.912Z,20.70
2019-04-16T11:40:46.522Z,20.80
2019-04-16T11:43:15.124Z,20.90
2019-04-16T11:45:43.809Z,21.00
2019-04-16T11:48:12.434Z,21.20
2019-04-16T11:50:40.976Z,21.30
2019-04-16T11:53:09.849Z,21.30
2019-04-16T11:55:38.717Z,21.40
2019-04-16T11:58:09.055Z,21.60
2019-04-16T12:00:45.102Z,21.70
2019-04-16T12:03:17.869Z,21.90
2019-04-16T12:05:56.917Z,22.10
2019-04-16T12:08:29.840Z,22.20
2019-04-16T12:11:11.543Z,22.30
2019-04-16T12:13:41.784Z,22.30
2019-04-16T12:16:14.696Z,22.30
2019-04-16T12:18:47.714Z,22.50
2019-04-16T12:21:18.084Z,22.80
2019-04-16T12:23:57.086Z,22.90
2019-04-16T12:26:32.852Z,23.80
2019-04-16T12:29:14.859Z,25.80
2019-04-16T12:32:05.379Z,29.10
2019-04-16T12:34:41.829Z,31.30
2019-04-16T12:37:20.837Z,32.10
2019-04-16T12:39:53.920Z,34.50
2019-04-16T12:42:24.138Z,36.40
2019-04-16T12:44:57.023Z,38.50
2019-04-16T12:47:27.335Z,39.20
2019-04-16T12:50:00.250Z,40.20
2019-04-16T12:52:39.925Z,41.10
2019-04-16T12:55:23.791Z,42.30
2019-04-16T12:57:54.153Z,42.70
2019-04-16T13:00:28.714Z,43.50
2019-04-16T13:02:57.628Z,44.10
2019-04-16T13:05:37.241Z,44.90
2019-04-16T13:08:16.832Z,45.30
2019-04-16T13:10:53.312Z,45.60
2019-04-16T13:13:38.534Z,46.00
2019-04-16T13:16:24.970Z,46.60
2019-04-16T13:19:07.263Z,47.10
2019-04-16T13:21:43.842Z,47.70
2019-04-16T13:24:16.553Z,47.90
2019-04-16T13:26:46.693Z,48.10
2019-04-16T13:29:17.302Z,48.30
2019-04-16T13:31:46.050Z,48.30
2019-04-16T13:34:18.377Z,48.70
2019-04-16T13:36:45.094Z,48.80
2019-04-16T13:39:15.320Z,49.30
2019-04-16T13:41:43.868Z,49.70
2019-04-16T13:44:17.076Z,50.40
2019-04-16T13:46:44.914Z,50.50
2019-04-16T13:49:31.345Z,50.60
2019-04-16T13:51:57.953Z,50.80
2019-04-16T13:54:34.034Z,50.70
2019-04-16T13:57:01.134Z,50.80
2019-04-16T13:59:31.884Z,50.80
2019-04-16T14:02:11.517Z,51.00
2019-04-16T14:04:40.707Z,51.10
2019-04-16T14:07:09.875Z,51.30
2019-04-16T14:09:39.048Z,51.40
2019-04-16T14:12:08.127Z,51.30
2019-04-16T14:14:37.202Z,51.30
2019-04-16T14:17:10.033Z,51.50
2019-04-16T14:19:37.991Z,51.50
2019-04-16T14:22:07.823Z,51.70
2019-04-16T14:24:37.530Z,51.70
2019-04-16T14:27:06.675Z,51.90
2019-04-16T14:29:38.401Z,52.00
2019-04-16T14:32:06.649Z,52.20
2019-04-16T14:34:37.441Z,52.40
2019-04-16T14:37:06.547Z,52.50
2019-04-16T14:39:37.422Z,52.50
2019-04-16T14:42:06.677Z,52.20
2019-04-16T14:47:25.655Z,52.70
2019-04-16T14:49:54.829Z,53.00
2019-04-16T14:52:24.154Z,53.10
2019-04-16T14:54:54.891Z,52.90
2019-04-16T14:57:24.077Z,52.90
2019-04-16T14:59:54.866Z,52.70
2019-04-16T15:02:29.689Z,52.70
2019-04-16T15:05:03.669Z,52.80
2019-04-16T15:07:43.860Z,52.80
2019-04-16T15:10:21.800Z,52.80
2019-04-16T15:12:54.152Z,52.90
2019-04-16T15:15:36.006Z,53.20
2019-04-16T15:18:15.743Z,53.30
2019-04-16T15:20:49.454Z,53.30
2019-04-16T15:23:23.394Z,53.50
2019-04-16T15:26:00.163Z,53.30
2019-04-16T15:28:33.827Z,53.40
2019-04-16T15:31:10.082Z,53.40
2019-04-16T15:33:46.352Z,53.30
2019-04-16T15:36:19.486Z,53.30
2019-04-16T15:39:02.944Z,53.20
2019-04-16T15:41:33.436Z,53.00
2019-04-16T15:44:15.744Z,51.60
2019-04-16T15:46:51.818Z,51.50
2019-04-16T15:49:28.543Z,50.80
2019-04-16T15:52:09.886Z,50.80
2019-04-16T15:54:55.588Z,50.00
2019-04-16T15:57:28.454Z,49.70
2019-04-16T16:00:10.509Z,49.60
2019-04-16T16:02:57.142Z,49.60
2019-04-16T16:05:27.436Z,49.50
2019-04-16T16:08:01.437Z,49.50
2019-04-16T16:10:38.540Z,49.80
2019-04-16T16:13:07.143Z,49.90
2019-04-16T16:15:40.218Z,49.90
2019-04-16T16:18:05.927Z,49.90
2019-04-16T16:20:34.530Z,49.90
2019-04-16T16:23:03.093Z,49.90
2019-04-16T16:25:31.752Z,49.60
2019-04-16T16:28:00.912Z,49.50
2019-04-16T16:30:30.091Z,48.80
2019-04-16T16:32:59.245Z,48.20
2019-04-16T16:35:28.480Z,47.60
2019-04-16T16:37:57.644Z,47.60
2019-04-16T16:40:26.822Z,47.30
2019-04-16T16:42:55.310Z,46.80
2019-04-16T16:45:25.530Z,46.20
2019-04-16T16:47:54.344Z,46.00
2019-04-16T16:50:22.966Z,45.10
2019-04-16T16:53:01.935Z,44.10
2019-04-16T16:55:41.295Z,43.40
2019-04-16T16:58:14.613Z,43.10
2019-04-16T17:00:59.164Z,42.30
2019-04-16T17:03:28.492Z,41.70
2019-04-16T17:05:58.682Z,40.40
2019-04-16T17:08:30.247Z,39.90
2019-04-16T17:10:57.622Z,38.80
2019-04-16T17:13:26.117Z,36.00
2019-04-16T17:15:54.926Z,34.20
2019-04-16T17:23:19.847Z,29.50
2019-04-16T17:48:29.600Z,21.80
2019-04-16T17:50:59.829Z,21.50
2019-04-16T18:01:29.653Z,20.30
2019-04-16T18:22:21.214Z,18.70
2019-04-16T18:25:07.536Z,18.60
2019-04-16T18:27:43.424Z,18.40
2019-04-16T18:30:31.100Z,18.30
2019-04-16T18:40:43.410Z,17.70
2019-04-16T18:43:30.110Z,17.60
2019-04-16T19:01:12.216Z,17.00
2019-04-16T19:03:40.942Z,16.90
2019-04-16T19:06:09.540Z,16.80
2019-04-16T19:08:42.085Z,16.80
2019-04-16T19:11:08.534Z,16.70
2019-04-16T19:16:05.428Z,16.60
2019-04-16T19:18:33.949Z,16.40
2019-04-16T19:23:30.786Z,16.30
2019-04-16T19:25:59.413Z,16.30
2019-04-16T19:28:27.963Z,16.30
2019-04-16T19:35:52.879Z,16.10
2019-04-16T19:40:50.826Z,16.00
2019-04-16T19:43:19.959Z,15.90
2019-04-16T19:45:49.351Z,15.90
2019-04-16T19:53:15.923Z,15.80
2019-04-16T19:55:45.801Z,15.90
2019-04-16T20:00:42.947Z,15.80
2019-04-16T20:05:39.732Z,15.70
2019-04-16T20:08:08.306Z,15.70
2019-04-16T20:10:38.549Z,15.60
2019-04-16T20:15:35.357Z,15.50
2019-04-16T20:18:06.542Z,15.50
2019-04-16T20:20:34.306Z,15.40
2019-04-16T20:35:23.925Z,15.20
2019-04-16T20:37:54.012Z,15.10
2019-04-16T20:42:50.960Z,15.00
2019-04-16T20:47:47.819Z,15.00
2019-04-16T20:52:46.217Z,14.80
2019-04-16T20:55:16.058Z,14.90
2019-04-16T20:57:45.059Z,14.80
2019-04-16T21:02:43.494Z,14.70
2019-04-16T21:05:21.924Z,14.60
2019-04-16T21:10:12.266Z,14.60
2019-04-16T21:12:45.007Z,14.50
2019-04-16T21:15:11.046Z,14.50
2019-04-16T21:20:08.356Z,14.50
2019-04-16T21:25:06.004Z,14.40
2019-04-16T21:32:36.532Z,14.30
2019-04-16T21:35:16.966Z,14.30
2019-04-16T21:50:28.135Z,14.00
2019-04-16T22:02:52.262Z,13.90
2019-04-16T22:05:21.171Z,13.80
2019-04-16T22:07:49.984Z,13.80
2019-04-16T22:10:18.748Z,13.70
2019-04-16T22:22:43.639Z,13.50
2019-04-16T22:28:01.407Z,13.40
2019-04-16T22:30:30.181Z,13.40
2019-04-16T22:32:59.052Z,13.30
2019-04-16T22:35:31.616Z,13.30
2019-04-16T22:37:58.427Z,13.20
2019-04-16T22:40:34.992Z,13.10
2019-04-16T22:43:21.723Z,13.10
2019-04-16T22:45:54.942Z,13.00
2019-04-16T22:48:23.817Z,13.00
2019-04-16T22:50:52.637Z,12.90
2019-04-16T22:53:21.511Z,12.90
2019-04-16T22:55:50.420Z,12.80
2019-04-16T22:58:23.430Z,12.80
2019-04-16T23:00:54.443Z,12.80
2019-04-16T23:03:23.279Z,12.80
2019-04-16T23:05:52.075Z,12.70
2019-04-16T23:08:20.861Z,12.70
2019-04-16T23:10:51.947Z,12.70
2019-04-16T23:13:20.438Z,12.70
2019-04-16T23:15:49.311Z,12.60
2019-04-16T23:18:18.336Z,12.60
2019-04-16T23:20:47.283Z,12.60
2019-04-16T23:23:19.030Z,12.40
2019-04-16T23:25:46.737Z,12.40
2019-04-16T23:28:15.582Z,12.40
2019-04-16T23:30:44.458Z,12.40
2019-04-16T23:33:13.294Z,12.40
2019-04-16T23:35:44.450Z,12.40
2019-04-16T23:38:12.602Z,12.40
2019-04-16T23:40:43.949Z,12.30
2019-04-16T23:43:28.118Z,12.40
2019-04-16T23:46:14.452Z,12.40
2019-04-16T23:48:53.614Z,12.40
2019-04-16T23:51:40.080Z,12.40
2019-04-16T23:54:22.309Z,12.40
2019-04-16T23:57:01.597Z,12.50
2019-04-16T23:59:35.951Z,12.40
